Time;durP1;ratioP1;P1;durP2;ratioP2;P2;SDS_P1;SDS_P2;PMS_P1;PMS_P2;Temp;Humidity;BMP_temperature;BMP_pressure;BME280_temperature;BME280_humidity;BME280_pressure;Samples;Min_cycle;Max_cycle;Signal;HPM_P1;HPM_P2
2023/04/12 00:01:41;;;;;;;12.30;10.40;;;;;;;6.10;100.00;98441.12;105853;1253;59766;-77
2023/04/12 00:04:08;;;;;;;12.40;10.80;;;;;;;6.09;100.00;98435.54;105826;1253;63624;-77
2023/04/12 00:06:35;;;;;;;14.40;10.70;;;;;;;6.07;100.00;98437.27;105820;1253;59506;-77
2023/04/12 00:09:02;;;;;;;13.20;10.10;;;;;;;6.06;100.00;98437.34;105856;1253;59591;-79
2023/04/12 00:11:30;;;;;;;13.00;10.80;;;;;;;6.06;100.00;98434.31;105846;1255;64999;-78
2023/04/12 00:13:57;;;;;;;12.90;11.40;;;;;;;6.08;100.00;98433.84;105838;1253;60755;-77
2023/04/12 00:16:24;;;;;;;12.70;11.30;;;;;;;6.09;100.00;98433.96;105813;1256;63781;-78
2023/04/12 00:18:50;;;;;;;13.10;11.70;;;;;;;6.10;100.00;98428.45;105546;1254;59888;-77
2023/04/12 00:21:18;;;;;;;15.30;12.60;;;;;;;6.09;100.00;98422.48;105883;1253;59804;-78
2023/04/12 00:23:46;;;;;;;15.30;12.40;;;;;;;6.07;100.00;98421.54;105603;1254;65221;-78
2023/04/12 00:26:13;;;;;;;14.30;12.90;;;;;;;6.06;100.00;98422.49;105865;1256;60921;-77
2023/04/12 00:28:41;;;;;;;15.80;12.30;;;;;;;6.05;100.00;98419.91;105846;1252;63992;-79
2023/04/12 00:31:07;;;;;;;15.70;13.80;;;;;;;6.04;100.00;98423.86;105909;1253;59793;-78
2023/04/12 00:33:34;;;;;;;15.80;14.00;;;;;;;6.03;100.00;98422.33;105855;1255;60446;-77
2023/04/12 00:36:00;;;;;;;15.10;12.90;;;;;;;6.03;100.00;98420.39;105804;1255;59572;-75
2023/04/12 00:38:27;;;;;;;14.70;13.20;;;;;;;6.03;100.00;98417.21;105827;1255;60665;-77
2023/04/12 00:40:53;;;;;;;15.70;13.80;;;;;;;6.04;100.00;98417.70;105852;1253;64736;-76
2023/04/12 00:43:20;;;;;;;17.50;14.80;;;;;;;6.05;100.00;98419.55;105836;1255;59607;-76
2023/04/12 00:45:47;;;;;;;15.50;13.20;;;;;;;6.06;100.00;98415.80;105898;1255;59631;-77
2023/04/12 00:48:15;;;;;;;16.10;14.10;;;;;;;6.05;100.00;98415.65;105848;1253;63238;-77
2023/04/12 00:50:43;;;;;;;16.10;14.30;;;;;;;6.06;100.00;98415.11;105984;1255;60635;-76
2023/04/12 00:53:12;;;;;;;14.90;13.40;;;;;;;6.06;100.00;98412.97;106027;1255;64638;-77
2023/04/12 00:55:45;;;;;;;17.10;15.50;;;;;;;6.08;100.00;98413.39;105933;1253;60080;-79
2023/04/12 00:58:13;;;;;;;18.20;16.40;;;;;;;6.10;100.00;98418.92;105635;1253;59409;-79
2023/04/12 01:00:39;;;;;;;15.20;13.70;;;;;;;6.08;100.00;98418.65;105822;1253;65219;-78
2023/04/12 01:03:07;;;;;;;15.20;12.50;;;;;;;6.08;100.00;98420.62;106139;1253;59997;-78
2023/04/12 01:05:42;;;;;;;12.80;11.30;;;;;;;6.08;100.00;98419.58;106656;1253;64652;-78
2023/04/12 01:08:45;;;;;;;12.70;11.40;;;;;;;6.07;100.00;98420.88;106243;1256;59529;-78
2023/04/12 01:11:37;;;;;;;12.00;9.80;;;;;;;6.03;100.00;98415.77;105204;1265;59744;-78
2023/04/12 01:14:10;;;;;;;10.40;8.60;;;;;;;6.03;100.00;98418.46;105246;1262;65301;-77
2023/04/12 01:16:44;;;;;;;10.90;9.10;;;;;;;6.02;100.00;98420.98;105245;1265;59805;-77
2023/04/12 01:19:30;;;;;;;11.00;9.10;;;;;;;6.00;100.00;98420.73;105210;1262;64810;-78
2023/04/12 01:22:05;;;;;;;9.80;8.70;;;;;;;6.00;100.00;98422.48;105293;1265;60639;-79
2023/04/12 01:25:00;;;;;;;12.10;10.00;;;;;;;5.99;100.00;98422.00;105260;1261;60482;-77
2023/04/12 01:27:27;;;;;;;12.50;11.00;;;;;;;5.99;100.00;98420.77;105161;1265;66056;-78
2023/04/12 01:29:57;;;;;;;15.60;12.20;;;;;;;5.99;100.00;98418.31;105231;1265;60767;-77
2023/04/12 01:32:24;;;;;;;12.80;11.40;;;;;;;5.97;100.00;98413.85;105171;1263;64244;-78
2023/04/12 01:34:52;;;;;;;12.40;11.10;;;;;;;5.95;100.00;98411.31;105181;1262;60494;-77
2023/04/12 01:37:20;;;;;;;12.20;10.90;;;;;;;5.95;100.00;98414.66;105208;1265;60550;-77
2023/04/12 01:39:47;;;;;;;12.40;11.10;;;;;;;5.95;100.00;98415.89;105190;1262;64261;-78
2023/04/12 01:42:19;;;;;;;13.20;11.80;;;;;;;5.96;100.00;98422.03;105174;1261;60700;-78
2023/04/12 01:44:46;;;;;;;10.60;9.40;;;;;;;5.96;100.00;98419.73;105277;1265;64088;-77
2023/04/12 01:47:13;;;;;;;11.30;8.80;;;;;;;5.96;100.00;98418.32;105283;1265;60441;-78
2023/04/12 01:49:58;;;;;;;9.50;8.50;;;;;;;5.95;100.00;98419.62;105761;1253;60427;-78
2023/04/12 01:52:30;;;;;;;10.90;9.80;;;;;;;5.94;100.00;98422.84;105802;1255;65798;-78
2023/04/12 01:55:00;;;;;;;13.00;10.20;;;;;;;5.92;100.00;98420.44;105560;1261;60943;-76
2023/04/12 01:57:26;;;;;;;;;;;;;;;5.91;100.00;98419.42;105823;1254;64639;-77
2023/04/12 01:59:57;;;;;;;12.70;11.00;;;;;;;5.90;100.00;98418.44;105850;1256;60417;-77
2023/04/12 02:02:25;;;;;;;16.10;14.40;;;;;;;5.89;100.00;98417.44;105834;1253;60344;-77
2023/04/12 02:04:53;;;;;;;16.40;14.70;;;;;;;5.88;100.00;98414.84;105822;1254;65994;-77
2023/04/12 02:07:20;;;;;;;16.30;14.30;;;;;;;5.88;100.00;98411.70;105833;1253;60831;-77
2023/04/12 02:09:46;;;;;;;14.90;13.40;;;;;;;5.87;100.00;98408.76;105808;1253;63664;-77
2023/04/12 02:12:13;;;;;;;12.90;10.30;;;;;;;5.86;100.00;98406.48;105813;1256;60547;-78
2023/04/12 02:14:40;;;;;;;13.60;8.70;;;;;;;5.85;100.00;98407.80;105845;1253;60580;-76
2023/04/12 02:17:07;;;;;;;8.90;7.60;;;;;;;5.82;100.00;98407.63;105830;1253;66047;-77
2023/04/12 02:19:34;;;;;;;6.20;5.40;;;;;;;5.79;100.00;98409.41;105838;1252;60460;-77
2023/04/12 02:22:01;;;;;;;7.20;5.90;;;;;;;5.77;100.00;98414.10;105809;1253;65806;-77
2023/04/12 02:24:27;;;;;;;6.80;5.20;;;;;;;5.75;100.00;98413.66;105848;1253;60320;-77
2023/04/12 02:26:54;;;;;;;6.50;5.40;;;;;;;5.73;100.00;98412.33;105844;1255;60537;-76
2023/04/12 02:29:20;;;;;;;6.50;5.20;;;;;;;5.72;100.00;98413.80;105629;1253;60468;-78
2023/04/12 02:31:47;;;;;;;5.40;4.90;;;;;;;5.72;100.00;98415.94;105875;1253;60628;-77
2023/04/12 02:34:14;;;;;;;5.70;4.90;;;;;;;5.72;100.00;98416.09;105863;1255;62847;-78
2023/04/12 02:36:45;;;;;;;8.00;5.70;;;;;;;5.72;100.00;98417.33;105738;1258;60394;-78
2023/04/12 02:39:12;;;;;;;8.90;7.50;;;;;;;5.72;100.00;98419.48;105523;1253;61992;-77
2023/04/12 02:41:39;;;;;;;9.30;7.80;;;;;;;5.70;100.00;98415.53;105801;1256;65808;-78
2023/04/12 02:44:06;;;;;;;10.30;8.50;;;;;;;5.69;100.00;98414.70;105713;1258;61880;-78
2023/04/12 02:46:32;;;;;;;11.60;8.50;;;;;;;5.69;100.00;98415.93;105848;1253;60442;-77
2023/04/12 02:48:59;;;;;;;11.50;9.00;;;;;;;5.68;100.00;98415.61;105802;1253;60482;-77
2023/04/12 02:51:26;;;;;;;15.40;10.30;;;;;;;5.67;100.00;98413.39;105588;1253;60568;-77
2023/04/12 02:53:53;;;;;;;11.80;10.10;;;;;;;5.65;100.00;98411.73;105838;1253;65874;-77
2023/04/12 02:56:20;;;;;;;13.30;10.40;;;;;;;5.65;100.00;98416.31;105798;1255;60419;-77
2023/04/12 02:58:47;;;;;;;14.90;11.40;;;;;;;5.66;100.00;98415.76;105810;1253;64716;-77
2023/04/12 03:01:13;;;;;;;15.40;11.40;;;;;;;5.65;100.00;98416.13;105598;1262;60423;-77
2023/04/12 03:03:40;;;;;;;13.60;10.20;;;;;;;5.65;100.00;98414.38;105790;1255;60454;-77
2023/04/12 03:06:08;;;;;;;13.50;11.00;;;;;;;5.65;100.00;98416.31;105812;1253;60429;-77
2023/04/12 03:08:35;;;;;;;13.20;10.20;;;;;;;5.65;100.00;98416.67;105868;1256;60553;-77
2023/04/12 03:11:02;;;;;;;14.70;11.50;;;;;;;5.64;100.00;98413.59;105831;1253;64866;-77
2023/04/12 03:13:28;;;;;;;12.80;10.80;;;;;;;5.63;100.00;98416.29;105871;1254;60411;-78
2023/04/12 03:15:57;;;;;;;15.50;10.70;;;;;;;5.61;100.00;98415.15;105575;1253;60322;-77
2023/04/12 03:18:24;;;;;;;12.30;9.30;;;;;;;5.60;100.00;98415.89;105907;1252;64835;-79
2023/04/12 03:20:53;;;;;;;13.80;9.20;;;;;;;5.58;100.00;98409.48;105869;1255;60935;-78
2023/04/12 03:23:20;;;;;;;12.80;8.50;;;;;;;5.58;100.00;98409.17;105748;1257;62837;-80
2023/04/12 03:25:46;;;;;;;10.50;7.30;;;;;;;5.57;100.00;98411.52;105852;1255;60313;-78
2023/04/12 03:28:13;;;;;;;13.80;7.60;;;;;;;5.57;100.00;98409.73;105851;1254;60436;-77
2023/04/12 03:30:39;;;;;;;9.00;7.00;;;;;;;5.56;100.00;98399.73;105603;1253;60453;-77
2023/04/12 03:33:06;;;;;;;8.80;6.50;;;;;;;5.56;100.00;98400.98;105803;1253;60529;-77
2023/04/12 03:35:33;;;;;;;9.20;6.50;;;;;;;5.55;100.00;98402.27;106016;1254;63705;-77
2023/04/12 03:37:59;;;;;;;8.90;6.60;;;;;;;5.55;100.00;98399.80;105538;1260;60463;-79
2023/04/12 03:40:26;;;;;;;10.50;6.30;;;;;;;5.55;100.00;98398.56;105731;1252;60949;-78
2023/04/12 03:42:52;;;;;;;9.20;7.10;;;;;;;5.54;100.00;98396.30;105779;1255;64920;-77
2023/04/12 03:45:19;;;;;;;12.10;9.90;;;;;;;5.55;100.00;98399.29;105839;1256;70246;-77
2023/04/12 03:47:45;;;;;;;13.70;10.30;;;;;;;5.53;100.00;98400.10;105607;1256;73924;-81
2023/04/12 03:50:12;;;;;;;15.70;10.60;;;;;;;5.52;100.00;98394.84;105829;1253;60428;-80
2023/04/12 03:52:38;;;;;;;13.10;11.80;;;;;;;5.50;100.00;98392.48;105704;1253;60460;-78
2023/04/12 03:55:06;;;;;;;12.00;10.70;;;;;;;5.49;100.00;98392.16;105639;1258;65247;-80
2023/04/12 03:57:32;;;;;;;16.80;11.90;;;;;;;5.49;100.00;98393.95;105888;1255;60539;-79
2023/04/12 03:59:59;;;;;;;14.00;12.00;;;;;;;5.48;100.00;98399.11;105590;1254;64670;-79
2023/04/12 04:02:26;;;;;;;12.60;10.00;;;;;;;5.48;100.00;98400.50;105913;1259;60550;-77
2023/04/12 04:04:52;;;;;;;14.90;12.60;;;;;;;5.49;100.00;98405.59;105890;1255;60479;-78
2023/04/12 04:07:20;;;;;;;15.20;12.10;;;;;;;5.48;100.00;98400.19;106041;1256;60348;-79
2023/04/12 04:09:47;;;;;;;12.40;10.90;;;;;;;5.48;100.00;98398.81;105887;1256;60348;-78
2023/04/12 04:12:14;;;;;;;11.40;9.40;;;;;;;5.48;100.00;98398.61;105892;1255;62818;-79
2023/04/12 04:14:40;;;;;;;14.40;9.00;;;;;;;5.49;100.00;98397.48;105959;1255;60571;-76
2023/04/12 04:17:07;;;;;;;14.80;9.60;;;;;;;5.49;100.00;98398.40;105794;1257;60415;-79
2023/04/12 04:19:34;;;;;;;13.30;11.10;;;;;;;5.49;100.00;98399.05;105842;1264;65965;-79
2023/04/12 04:22:03;;;;;;;12.50;10.80;;;;;;;5.49;100.00;98396.60;105999;1255;60978;-76
2023/04/12 04:24:30;;;;;;;13.20;10.20;;;;;;;5.50;100.00;98397.09;105915;1253;64739;-78
2023/04/12 04:26:57;;;;;;;14.00;9.50;;;;;;;5.51;100.00;98396.69;105924;1255;60518;-78
2023/04/12 04:29:24;;;;;;;15.80;11.00;;;;;;;5.51;100.00;98396.48;105891;1252;60347;-79
2023/04/12 04:31:52;;;;;;;11.50;10.30;;;;;;;5.52;100.00;98397.66;105536;1259;65228;-79
2023/04/12 04:34:18;;;;;;;13.30;11.00;;;;;;;5.53;100.00;98396.56;105815;1257;60633;-77
2023/04/12 04:36:45;;;;;;;14.30;10.00;;;;;;;5.55;100.00;98398.41;105832;1253;60457;-77
2023/04/12 04:39:12;;;;;;;13.40;10.30;;;;;;;5.56;100.00;98401.67;105848;1256;60348;-77
2023/04/12 04:41:40;;;;;;;9.80;8.80;;;;;;;5.59;100.00;98405.23;105579;1260;60434;-79
2023/04/12 04:44:10;;;;;;;11.30;9.80;;;;;;;5.61;100.00;98403.55;105824;1256;73963;-80
2023/04/12 04:46:36;;;;;;;11.80;9.30;;;;;;;5.63;100.00;98401.84;105773;1254;60467;-80
2023/04/12 04:49:04;;;;;;;11.30;9.40;;;;;;;5.62;100.00;98404.48;105843;1253;64569;-79
2023/04/12 04:51:31;;;;;;;9.50;8.40;;;;;;;5.65;100.00;98404.85;105853;1255;60563;-78
2023/04/12 04:53:59;;;;;;;10.70;7.90;;;;;;;5.68;100.00;98406.29;105840;1253;60339;-78
2023/04/12 04:56:26;;;;;;;12.00;8.20;;;;;;;5.69;100.00;98406.60;105575;1254;64066;-77
2023/04/12 04:58:53;;;;;;;11.00;8.70;;;;;;;5.69;100.00;98400.23;105870;1256;61653;-77
2023/04/12 05:01:19;;;;;;;10.40;8.10;;;;;;;5.72;100.00;98400.79;105848;1255;64091;-78
2023/04/12 05:03:48;;;;;;;10.70;8.00;;;;;;;5.75;100.00;98403.57;105763;1255;60450;-78
2023/04/12 05:06:15;;;;;;;10.00;8.10;;;;;;;5.79;100.00;98405.13;105836;1255;60415;-79
2023/04/12 05:08:41;;;;;;;12.10;8.80;;;;;;;5.82;100.00;98405.84;105900;1258;65243;-80
2023/04/12 05:11:08;;;;;;;12.30;8.50;;;;;;;5.85;100.00;98411.84;105824;1256;60510;-81
2023/04/12 05:13:36;;;;;;;12.00;9.00;;;;;;;5.90;100.00;98409.63;105809;1256;65238;-78
2023/04/12 05:16:07;;;;;;;11.20;9.30;;;;;;;5.99;100.00;98405.44;105827;1254;60456;-78
2023/04/12 05:18:34;;;;;;;10.30;8.10;;;;;;;6.05;100.00;98407.20;105859;1256;60337;-77
2023/04/12 05:21:02;;;;;;;10.70;8.20;;;;;;;6.09;100.00;98405.19;105876;1253;64838;-78
2023/04/12 05:23:29;;;;;;;10.60;7.80;;;;;;;6.17;100.00;98409.00;106082;1256;60502;-78
2023/04/12 05:25:55;;;;;;;10.10;8.30;;;;;;;6.26;100.00;98408.09;105716;1254;64600;-77
2023/04/12 05:28:22;;;;;;;15.50;9.00;;;;;;;6.34;100.00;98408.83;106431;1253;60409;-77
2023/04/12 05:30:48;;;;;;;9.90;8.10;;;;;;;6.42;100.00;98409.98;107690;1254;60308;-78
2023/04/12 05:33:15;;;;;;;10.90;8.00;;;;;;;6.48;100.00;98414.02;106973;1258;65583;-77
2023/04/12 05:35:42;;;;;;;9.40;7.70;;;;;;;6.53;100.00;98413.77;105873;1256;60508;-78
2023/04/12 05:38:08;;;;;;;11.70;6.50;;;;;;;6.58;100.00;98412.33;105807;1253;64109;-79
2023/04/12 05:40:35;;;;;;;7.70;6.50;;;;;;;6.63;100.00;98412.06;105890;1256;60306;-78
2023/04/12 05:43:02;;;;;;;8.70;6.60;;;;;;;6.69;100.00;98408.39;105814;1253;60434;-78
2023/04/12 05:45:29;;;;;;;8.10;7.30;;;;;;;6.74;100.00;98407.33;105854;1254;65823;-78
2023/04/12 05:47:55;;;;;;;12.30;7.20;;;;;;;6.80;100.00;98402.95;105825;1266;60969;-77
2023/04/12 05:50:22;;;;;;;11.20;7.70;;;;;;;6.84;100.00;98402.37;105839;1256;60439;-77
2023/04/12 05:52:50;;;;;;;10.90;8.10;;;;;;;6.88;100.00;98399.98;105860;1258;60422;-78
2023/04/12 05:55:17;;;;;;;10.00;7.30;;;;;;;6.94;100.00;98402.42;105805;1257;59339;-78
2023/04/12 05:57:45;;;;;;;11.20;8.00;;;;;;;6.99;100.00;98403.73;105831;1257;65105;-77
2023/04/12 06:00:15;;;;;;;10.70;8.10;;;;;;;7.03;100.00;98397.98;105910;1251;60474;-77
2023/04/12 06:02:44;;;;;;;8.60;6.90;;;;;;;7.08;100.00;98399.23;105572;1262;65314;-78
2023/04/12 06:05:11;;;;;;;9.30;7.90;;;;;;;7.11;100.00;98403.66;105742;1262;60531;-78
2023/04/12 06:07:40;;;;;;;12.80;7.60;;;;;;;7.17;100.00;98412.13;105959;1255;60443;-77
2023/04/12 06:10:08;;;;;;;13.40;8.50;;;;;;;7.24;100.00;98413.81;105756;1257;65826;-77
2023/04/12 06:12:35;;;;;;;11.80;9.40;;;;;;;7.23;100.00;98419.70;106059;1256;61012;-76
2023/04/12 06:15:02;;;;;;;12.40;8.60;;;;;;;7.16;100.00;98421.38;105831;1257;64802;-78
2023/04/12 06:17:28;;;;;;;11.90;8.00;;;;;;;7.12;100.00;98420.93;105541;1257;60514;-78
2023/04/12 06:19:55;;;;;;;11.80;8.20;;;;;;;7.10;100.00;98421.45;105893;1257;60339;-79
2023/04/12 06:22:21;;;;;;;10.20;8.30;;;;;;;7.01;100.00;98415.60;105874;1255;65963;-77
2023/04/12 06:24:48;;;;;;;12.70;8.90;;;;;;;6.96;100.00;98418.05;105726;1253;60400;-78
2023/04/12 06:27:15;;;;;;;14.10;10.10;;;;;;;6.92;100.00;98417.88;105844;1254;64612;-78
2023/04/12 06:29:41;;;;;;;11.60;9.40;;;;;;;6.94;100.00;98419.03;105883;1256;60521;-78
2023/04/12 06:32:08;;;;;;;12.80;9.30;;;;;;;6.99;100.00;98417.83;105851;1256;60308;-77
2023/04/12 06:34:35;;;;;;;9.50;8.40;;;;;;;7.07;100.00;98417.87;105872;1256;60364;-77
2023/04/12 06:37:01;;;;;;;11.10;9.10;;;;;;;7.16;100.00;98412.39;105623;1269;60569;-77
2023/04/12 06:39:28;;;;;;;11.30;8.10;;;;;;;7.26;100.00;98408.77;105876;1254;60463;-78
2023/04/12 06:41:56;;;;;;;10.30;9.10;;;;;;;7.39;100.00;98405.10;105909;1254;60467;-78
2023/04/12 06:44:23;;;;;;;11.60;8.60;;;;;;;7.53;100.00;98401.19;105906;1254;60389;-78
2023/04/12 06:46:50;;;;;;;13.10;8.90;;;;;;;7.69;100.00;98399.67;105929;1256;65933;-78
2023/04/12 06:49:16;;;;;;;12.00;8.50;;;;;;;7.83;100.00;98402.30;105896;1256;60824;-78
2023/04/12 06:51:43;;;;;;;11.00;9.10;;;;;;;7.98;100.00;98394.94;105901;1256;65662;-78
2023/04/12 06:54:09;;;;;;;10.80;8.70;;;;;;;8.09;100.00;98399.98;105656;1259;60412;-78
2023/04/12 06:56:37;;;;;;;9.70;8.60;;;;;;;8.11;100.00;98402.89;109491;1255;58191;-79
2023/04/12 06:59:03;;;;;;;9.40;8.20;;;;;;;8.13;100.00;98404.71;109381;1253;64134;-78
2023/04/12 07:01:30;;;;;;;9.60;8.60;;;;;;;8.27;100.00;98404.13;109185;1253;60044;-78
2023/04/12 07:03:57;;;;;;;13.90;10.00;;;;;;;8.38;100.00;98403.95;109467;1254;65171;-77
2023/04/12 07:06:23;;;;;;;11.50;8.40;;;;;;;8.41;100.00;98402.38;109484;1252;58273;-78
2023/04/12 07:08:50;;;;;;;14.20;8.20;;;;;;;8.46;100.00;98403.39;109526;1253;58372;-79
2023/04/12 07:11:17;;;;;;;13.90;8.60;;;;;;;8.55;100.00;98400.54;109418;1254;65039;-78
2023/04/12 07:13:43;;;;;;;12.50;8.50;;;;;;;8.66;100.00;98401.17;109515;1253;59023;-78
2023/04/12 07:16:10;;;;;;;9.50;7.70;;;;;;;8.67;100.00;98401.13;109468;1254;58322;-79
2023/04/12 07:18:38;;;;;;;9.90;8.20;;;;;;;8.70;100.00;98397.88;109481;1253;58624;-79
2023/04/12 07:21:05;;;;;;;9.50;7.90;;;;;;;8.84;100.00;98396.58;109469;1252;58178;-79
2023/04/12 07:23:32;;;;;;;11.50;7.80;;;;;;;9.06;100.00;98400.52;109433;1254;64060;-79
2023/04/12 07:25:59;;;;;;;8.20;7.10;;;;;;;9.31;100.00;98400.36;109489;1254;60133;-79
2023/04/12 07:28:26;;;;;;;8.50;6.80;;;;;;;9.50;100.00;98399.52;109115;1253;64017;-79
2023/04/12 07:30:53;;;;;;;7.80;6.90;;;;;;;9.70;100.00;98398.04;109494;1252;58151;-79
2023/04/12 07:33:19;;;;;;;8.40;6.80;;;;;;;9.88;100.00;98399.45;109511;1254;58219;-79
2023/04/12 07:35:46;;;;;;;7.70;6.10;;;;;;;9.98;100.00;98392.63;109469;1251;64062;-78
2023/04/12 07:38:12;;;;;;;8.90;6.80;;;;;;;10.12;100.00;98391.09;109427;1253;58190;-79
2023/04/12 07:40:39;;;;;;;9.40;7.50;;;;;;;10.20;100.00;98389.91;109477;1253;58342;-79
2023/04/12 07:43:05;;;;;;;7.50;6.40;;;;;;;10.27;100.00;98391.59;109315;1252;58314;-79
2023/04/12 07:45:35;;;;;;;9.90;6.50;;;;;;;10.33;100.00;98393.48;109426;1252;58383;-79
2023/04/12 07:48:02;;;;;;;8.10;6.50;;;;;;;10.46;100.00;98391.36;109483;1253;64085;-78
2023/04/12 07:50:29;;;;;;;7.70;6.90;;;;;;;10.68;100.00;98386.34;109462;1253;58922;-79
2023/04/12 07:53:20;;;;;;;9.20;8.10;;;;;;;10.93;100.00;98386.67;109494;1253;64087;-79
2023/04/12 07:55:46;;;;;;;9.40;8.10;;;;;;;11.05;100.00;98389.83;109435;1253;58303;-79
2023/04/12 07:58:14;;;;;;;7.70;6.30;;;;;;;11.11;100.00;98389.17;109425;1252;58054;-79
2023/04/12 08:00:42;;;;;;;6.90;5.50;;;;;;;11.11;100.00;98386.56;109434;1252;65213;-79
2023/04/12 08:03:11;;;;;;;7.80;6.50;;;;;;;10.95;100.00;98396.16;109493;1253;60157;-79
2023/04/12 08:05:38;;;;;;;8.40;7.10;;;;;;;10.85;100.00;98385.94;109443;1253;63307;-78
2023/04/12 08:08:05;;;;;;;7.50;6.40;;;;;;;10.85;100.00;98383.75;109419;1252;58157;-78
2023/04/12 08:10:33;;;;;;;7.30;6.60;;;;;;;10.95;100.00;98380.17;109423;1254;58119;-79
2023/04/12 08:13:00;;;;;;;6.50;5.90;;;;;;;11.24;100.00;98375.02;109576;1251;64025;-79
2023/04/12 08:15:26;;;;;;;6.70;6.10;;;;;;;11.53;100.00;98374.65;109661;1251;60503;-79
2023/04/12 08:17:53;;;;;;;8.00;6.00;;;;;;;11.80;100.00;98373.38;109586;1251;58200;-78
2023/04/12 08:20:19;;;;;;;6.90;5.70;;;;;;;11.89;100.00;98370.88;109560;1251;58217;-79
2023/04/12 08:22:47;;;;;;;6.20;5.60;;;;;;;11.80;100.00;98373.02;109625;1251;58201;-79
2023/04/12 08:25:15;;;;;;;8.40;6.00;;;;;;;11.65;100.00;98372.56;109531;1251;64007;-78
2023/04/12 08:27:42;;;;;;;6.90;6.20;;;;;;;11.69;100.00;98369.42;109551;1251;61142;-76
2023/04/12 08:30:10;;;;;;;7.40;5.90;;;;;;;11.83;100.00;98367.20;109412;1254;62846;-79
2023/04/12 08:32:37;;;;;;;6.30;5.80;;;;;;;12.06;100.00;98364.31;109520;1251;58208;-79
2023/04/12 08:35:05;;;;;;;6.30;5.60;;;;;;;12.43;100.00;98359.79;109483;1251;58237;-79
2023/04/12 08:37:32;;;;;;;8.50;6.00;;;;;;;12.80;100.00;98353.07;109234;1251;64029;-79
2023/04/12 08:40:03;;;;;;;6.50;5.90;;;;;;;13.08;100.00;98352.23;109534;1251;60216;-79
2023/04/12 08:42:31;;;;;;;7.60;5.60;;;;;;;13.27;100.00;98350.43;109520;1251;65384;-79
2023/04/12 08:44:57;;;;;;;5.90;5.40;;;;;;;13.32;100.00;98351.38;109556;1251;58204;-78
2023/04/12 08:47:24;;;;;;;6.00;5.20;;;;;;;13.36;100.00;98345.70;109531;1251;58522;-79
2023/04/12 08:49:51;;;;;;;6.00;4.50;;;;;;;13.39;100.00;98344.70;109331;1251;65576;-79
2023/04/12 08:52:18;;;;;;;6.70;6.10;;;;;;;13.23;98.60;98349.09;109557;1251;61563;-79
2023/04/12 08:54:44;;;;;;;8.20;5.50;;;;;;;12.79;97.72;98352.02;109553;1251;64055;-78
2023/04/12 08:57:11;;;;;;;6.70;5.60;;;;;;;12.49;99.69;98345.11;109496;1251;58450;-78
2023/04/12 08:59:41;;;;;;;8.30;5.90;;;;;;;12.48;100.00;98344.16;109511;1251;58240;-78
2023/04/12 09:02:08;;;;;;;7.10;5.90;;;;;;;12.52;100.00;98341.20;109450;1251;66319;-78
2023/04/12 09:04:49;;;;;;;6.90;5.70;;;;;;;12.60;100.00;98335.52;109539;1251;60057;-78
2023/04/12 09:07:16;;;;;;;5.40;4.90;;;;;;;12.84;100.00;98331.45;109496;1251;62828;-78
2023/04/12 09:09:46;;;;;;;7.20;5.70;;;;;;;13.14;100.00;98326.20;109506;1251;58485;-78
2023/04/12 09:12:14;;;;;;;7.60;5.40;;;;;;;13.46;100.00;98320.35;109556;1251;58270;-78
2023/04/12 09:14:44;;;;;;;6.20;5.30;;;;;;;13.69;100.00;98317.35;109485;1251;65229;-79
2023/04/12 09:17:25;;;;;;;6.10;4.50;;;;;;;13.99;100.00;98320.69;109496;1251;61309;-76
2023/04/12 09:19:54;;;;;;;4.90;4.20;;;;;;;14.30;99.64;98312.14;109502;1251;64066;-77
2023/04/12 09:22:35;;;;;;;5.30;4.30;;;;;;;14.58;99.90;98307.21;109477;1251;58196;-77
2023/04/12 09:25:05;;;;;;;6.40;4.60;;;;;;;14.65;95.30;98306.35;109384;1251;137637;-78
2023/04/12 09:27:46;;;;;;;5.20;3.70;;;;;;;14.45;93.97;98300.52;109392;1251;65309;-78
2023/04/12 09:30:14;;;;;;;7.20;5.80;;;;;;;14.48;93.82;98292.94;109366;1254;61171;-78
2023/04/12 09:32:41;;;;;;;7.80;4.70;;;;;;;14.35;90.93;98290.96;109040;1255;62510;-78
2023/04/12 09:35:08;;;;;;;6.70;5.60;;;;;;;13.98;91.13;98296.20;109300;1253;59305;-78
2023/04/12 09:37:36;;;;;;;6.70;5.00;;;;;;;13.81;93.29;98293.78;109351;1254;58519;-78
2023/04/12 09:40:05;;;;;;;9.70;5.40;;;;;;;13.61;92.82;98291.45;109334;1253;66365;-77
2023/04/12 09:42:47;;;;;;;6.30;4.80;;;;;;;13.39;93.23;98296.83;109361;1253;59249;-77
2023/04/12 09:45:25;;;;;;;7.10;5.50;;;;;;;13.13;91.66;98296.32;109188;1254;65164;-76
2023/04/12 09:47:53;;;;;;;5.60;4.60;;;;;;;12.95;93.36;98287.18;109342;1254;58214;-78
2023/04/12 09:50:27;;;;;;;6.90;5.30;;;;;;;13.04;94.69;98282.83;109344;1254;58573;-77
2023/04/12 09:52:56;;;;;;;5.40;4.90;;;;;;;13.15;93.14;98279.17;109330;1253;65407;-78
2023/04/12 09:55:27;;;;;;;5.00;4.40;;;;;;;13.21;93.78;98273.70;109355;1253;58699;-78
2023/04/12 09:57:55;;;;;;;5.70;5.20;;;;;;;13.36;95.27;98266.31;109145;1254;64071;-77
2023/04/12 10:00:24;;;;;;;7.50;6.00;;;;;;;13.55;94.62;98260.83;109261;1254;58216;-78
2023/04/12 10:02:54;;;;;;;6.60;5.20;;;;;;;13.61;92.58;98257.59;109436;1251;58171;-77
2023/04/12 10:05:24;;;;;;;6.60;4.80;;;;;;;13.66;93.84;98250.52;109313;1251;63658;-78
2023/04/12 10:07:52;;;;;;;7.00;5.10;;;;;;;13.83;93.41;98251.14;109472;1251;60216;-78
2023/04/12 10:10:20;;;;;;;7.30;5.70;;;;;;;13.94;92.20;98255.28;109473;1251;65241;-77
2023/04/12 10:12:48;;;;;;;5.50;4.20;;;;;;;14.12;92.52;98254.33;109381;1251;58294;-78
2023/04/12 10:15:20;;;;;;;3.70;3.40;;;;;;;14.39;90.31;98255.50;109539;1251;58160;-77
2023/04/12 10:17:51;;;;;;;3.80;3.40;;;;;;;14.58;89.63;98250.71;109559;1251;65860;-77
2023/04/12 10:20:20;;;;;;;4.00;3.20;;;;;;;14.83;88.24;98248.50;109529;1251;60720;-78
2023/04/12 10:22:51;;;;;;;4.90;4.10;;;;;;;14.93;82.12;98249.14;109382;1251;64114;-78
2023/04/12 10:25:20;;;;;;;4.60;3.80;;;;;;;14.65;81.73;98247.16;109566;1251;58150;-77
2023/04/12 10:27:47;;;;;;;4.20;3.80;;;;;;;14.31;82.38;98249.70;109442;1251;58232;-78
2023/04/12 10:30:21;;;;;;;3.90;3.40;;;;;;;14.02;82.67;98249.55;109578;1251;65627;-78
2023/04/12 10:33:12;;;;;;;4.10;3.30;;;;;;;13.87;82.31;98242.85;109427;1251;58676;-78
2023/04/12 10:35:52;;;;;;;4.30;3.60;;;;;;;13.73;82.67;98241.34;109524;1251;62842;-77
2023/04/12 10:38:20;;;;;;;3.40;3.10;;;;;;;13.73;83.00;98240.59;109547;1251;58112;-77
2023/04/12 10:41:19;;;;;;;4.20;3.50;;;;;;;13.73;83.08;98239.23;109239;1251;58230;-77
2023/04/12 10:43:47;;;;;;;3.80;3.50;;;;;;;13.81;82.69;98238.64;109496;1252;65253;-78
2023/04/12 10:46:44;;;;;;;3.50;2.80;;;;;;;13.93;81.46;98236.27;109487;1251;60007;-77
2023/04/12 10:49:15;;;;;;;4.20;3.00;;;;;;;14.00;80.40;98234.69;109200;1253;64096;-77
2023/04/12 10:52:01;;;;;;;4.10;3.10;;;;;;;14.14;81.46;98231.58;109334;1253;58166;-78
2023/04/12 10:54:28;;;;;;;3.80;3.40;;;;;;;14.38;81.29;98226.45;109446;1252;58244;-77
2023/04/12 10:56:56;;;;;;;4.00;3.70;;;;;;;14.70;81.52;98226.70;109492;1252;65674;-77
2023/04/12 10:59:23;;;;;;;3.40;3.20;;;;;;;15.17;81.63;98221.81;109482;1252;61474;-78
2023/04/12 11:02:11;;;;;;;4.10;3.10;;;;;;;15.68;79.99;98215.95;109434;1251;72991;-77
2023/04/12 11:04:38;;;;;;;4.10;2.80;;;;;;;15.90;79.55;98212.59;109414;1252;58231;-77
2023/04/12 11:07:10;;;;;;;3.00;2.70;;;;;;;15.91;75.52;98209.80;109478;1252;58209;-78
2023/04/12 11:09:42;;;;;;;3.10;2.80;;;;;;;15.56;70.16;98212.40;109477;1251;66281;-78
2023/04/12 11:12:12;;;;;;;3.20;2.80;;;;;;;15.45;73.36;98211.91;109322;1252;60436;-76
2023/04/12 11:14:45;;;;;;;3.10;2.90;;;;;;;15.86;75.88;98207.07;109438;1252;65155;-78
2023/04/12 11:17:12;;;;;;;3.10;2.80;;;;;;;16.30;74.07;98198.63;109459;1252;58396;-76
2023/04/12 11:19:43;;;;;;;3.30;3.00;;;;;;;16.35;70.43;98193.77;109511;1252;58202;-77
2023/04/12 11:22:12;;;;;;;3.70;2.80;;;;;;;16.39;70.95;98190.88;109373;1252;63772;-77
2023/04/12 11:24:45;;;;;;;5.40;2.90;;;;;;;16.51;70.96;98188.21;109484;1252;58969;-77